Time;durP1;ratioP1;P1;durP2;ratioP2;P2;SDS_P1;SDS_P2;PMS_P1;PMS_P2;Temp;Humidity;BMP_temperature;BMP_pressure;BME280_temperature;BME280_humidity;BME280_pressure;Samples;Min_cycle;Max_cycle;Signal;HPM_P1;HPM_P2
2022/07/18 00:02:08;;;;;;;7.72;4.97;;;14.70;96.20;;;;;;5062712;28;20037;-62
2022/07/18 00:04:34;;;;;;;8.45;5.65;;;14.70;96.30;;;;;;5057284;28;20056;-61
2022/07/18 00:07:00;;;;;;;9.38;5.25;;;14.70;96.40;;;;;;5059159;28;20040;-62
2022/07/18 00:09:25;;;;;;;8.32;5.90;;;14.60;96.40;;;;;;5062529;28;20166;-61
2022/07/18 00:11:51;;;;;;;9.93;5.65;;;14.60;96.50;;;;;;5062106;28;20099;-62
2022/07/18 00:14:18;;;;;;;9.48;5.78;;;14.60;96.50;;;;;;5054638;28;20032;-61
2022/07/18 00:16:44;;;;;;;10.05;6.35;;;14.60;96.50;;;;;;5051407;28;20463;-61
2022/07/18 00:19:09;;;;;;;8.98;5.82;;;14.60;96.40;;;;;;5059488;28;20101;-62
2022/07/18 00:21:35;;;;;;;10.52;5.70;;;14.60;96.40;;;;;;5068429;28;20380;-61
2022/07/18 00:24:01;;;;;;;11.02;5.50;;;14.60;96.50;;;;;;5054989;28;20122;-62
2022/07/18 00:26:27;;;;;;;9.13;5.40;;;14.60;96.60;;;;;;5054071;28;20123;-62
2022/07/18 00:28:53;;;;;;;10.18;5.95;;;14.60;96.70;;;;;;5049176;28;20127;-62
2022/07/18 00:31:18;;;;;;;9.73;5.93;;;14.60;96.80;;;;;;5053170;28;20041;-62
2022/07/18 00:33:44;;;;;;;8.73;6.45;;;14.50;96.70;;;;;;5060686;28;20049;-61
2022/07/18 00:36:10;;;;;;;11.15;6.00;;;14.50;96.80;;;;;;5046806;28;20459;-62
2022/07/18 00:38:36;;;;;;;9.98;6.20;;;14.50;96.80;;;;;;5060614;28;20045;-62
2022/07/18 00:41:01;;;;;;;10.38;6.10;;;14.50;96.70;;;;;;5050410;28;20071;-61
2022/07/18 00:43:27;;;;;;;11.40;6.68;;;14.40;97.00;;;;;;5050861;28;20044;-62
2022/07/18 00:45:52;;;;;;;11.52;6.25;;;14.50;96.70;;;;;;5058797;28;20537;-61
2022/07/18 00:48:19;;;;;;;12.57;6.53;;;14.40;96.60;;;;;;5050891;28;20131;-61
2022/07/18 00:50:46;;;;;;;10.20;6.15;;;14.50;96.50;;;;;;5065182;28;20078;-62
2022/07/18 00:53:12;;;;;;;11.20;5.93;;;14.50;96.40;;;;;;5058953;28;20374;-61
2022/07/18 00:55:39;;;;;;;10.80;6.20;;;14.60;96.30;;;;;;5062090;28;20045;-62
2022/07/18 00:58:05;;;;;;;9.73;5.50;;;14.60;96.30;;;;;;5054046;28;20036;-62
2022/07/18 01:03:15;;;;;;;9.02;5.53;;;14.60;96.20;;;;;;5054380;28;20076;-62
2022/07/18 01:05:41;;;;;;;10.00;4.78;;;14.50;96.20;;;;;;5049516;28;20061;-61
2022/07/18 01:08:06;;;;;;;10.93;5.28;;;14.60;96.20;;;;;;5053483;28;20131;-61
2022/07/18 01:10:32;;;;;;;7.97;4.63;;;14.50;96.10;;;;;;5056862;28;20041;-61
2022/07/18 01:12:57;;;;;;;7.15;4.93;;;14.50;96.20;;;;;;5057588;28;20123;-62
2022/07/18 01:15:23;;;;;;;7.63;4.55;;;14.50;96.20;;;;;;5056528;28;20036;-62
2022/07/18 01:17:49;;;;;;;9.77;5.00;;;14.50;96.20;;;;;;5051272;28;20115;-61
2022/07/18 01:20:14;;;;;;;8.25;5.32;;;14.50;96.10;;;;;;5061828;28;20033;-61
2022/07/18 01:22:41;;;;;;;7.07;4.28;;;14.40;96.10;;;;;;5042416;28;20051;-62
2022/07/18 01:25:08;;;;;;;7.93;5.05;;;14.30;96.40;;;;;;5050771;28;20404;-61
2022/07/18 01:27:34;;;;;;;9.35;5.72;;;14.30;96.10;;;;;;5056780;28;20047;-61
2022/07/18 01:30:00;;;;;;;10.30;5.28;;;14.20;96.10;;;;;;5054734;28;20500;-62
2022/07/18 01:32:26;;;;;;;10.93;5.60;;;14.20;96.30;;;;;;5061497;28;21976;-61
2022/07/18 01:34:51;;;;;;;8.18;5.60;;;14.10;96.50;;;;;;5050991;28;20044;-61
2022/07/18 01:37:17;;;;;;;9.27;5.40;;;14.10;96.60;;;;;;5052209;28;20045;-62
2022/07/18 01:39:44;;;;;;;7.55;5.03;;;14.00;96.70;;;;;;5053226;28;20047;-62
2022/07/18 01:42:10;;;;;;;9.73;5.50;;;14.00;96.80;;;;;;5062003;28;20066;-62
2022/07/18 01:44:37;;;;;;;7.78;5.50;;;14.00;97.00;;;;;;5055600;28;20961;-61
2022/07/18 01:47:05;;;;;;;8.40;5.05;;;13.90;97.10;;;;;;5056261;28;20477;-61
2022/07/18 01:49:32;;;;;;;8.45;5.30;;;14.00;97.30;;;;;;5054762;28;20673;-61
2022/07/18 01:51:58;;;;;;;8.75;4.47;;;14.00;97.30;;;;;;5054602;28;20040;-61
2022/07/18 01:54:27;;;;;;;8.32;4.85;;;13.90;97.20;;;;;;5054191;28;20461;-61
2022/07/18 01:56:53;;;;;;;8.30;4.55;;;13.90;97.30;;;;;;5051272;28;20460;-62
2022/07/18 01:59:19;;;;;;;9.85;5.22;;;13.80;97.40;;;;;;5050509;28;20485;-62
2022/07/18 02:01:45;;;;;;;8.20;4.90;;;13.80;97.50;;;;;;5062337;28;20044;-61
2022/07/18 02:04:11;;;;;;;9.45;5.70;;;13.80;97.50;;;;;;5053456;28;20464;-61
2022/07/18 02:06:37;;;;;;;12.85;6.00;;;13.80;97.50;;;;;;5053957;28;20025;-61
2022/07/18 02:09:04;;;;;;;11.20;6.28;;;13.70;97.50;;;;;;5049245;28;20029;-61
2022/07/18 02:11:30;;;;;;;10.95;5.97;;;13.80;97.60;;;;;;5067161;28;20044;-61
2022/07/18 02:13:56;;;;;;;11.23;6.70;;;13.80;97.60;;;;;;5064143;28;20063;-61
2022/07/18 02:16:21;;;;;;;10.13;6.43;;;13.80;97.70;;;;;;5065555;28;20454;-61
2022/07/18 02:18:47;;;;;;;11.52;5.50;;;13.80;97.70;;;;;;5063257;28;21026;-62
2022/07/18 02:21:13;;;;;;;7.50;5.03;;;13.80;97.80;;;;;;5054032;28;20593;-62
2022/07/18 02:23:40;;;;;;;10.18;5.47;;;13.80;98.00;;;;;;5059264;28;20068;-61
2022/07/18 02:26:07;;;;;;;7.97;5.18;;;13.80;97.90;;;;;;5065429;28;20079;-61
2022/07/18 02:28:33;;;;;;;8.82;5.68;;;13.80;98.00;;;;;;5054901;28;20036;-61
2022/07/18 02:30:59;;;;;;;9.45;5.63;;;13.70;98.10;;;;;;5061019;28;20480;-61
2022/07/18 02:33:24;;;;;;;8.93;5.93;;;13.70;98.20;;;;;;5059943;28;20052;-61
2022/07/18 02:35:50;;;;;;;9.85;5.90;;;13.70;98.20;;;;;;5059300;28;20045;-61
2022/07/18 02:38:16;;;;;;;10.82;5.95;;;13.70;98.10;;;;;;5050504;28;20120;-61
2022/07/18 02:40:42;;;;;;;12.43;6.53;;;13.70;98.10;;;;;;5052663;28;20064;-61
2022/07/18 02:43:08;;;;;;;12.75;6.75;;;13.80;98.10;;;;;;5054572;28;20047;-61
2022/07/18 02:45:34;;;;;;;12.68;7.10;;;13.80;98.10;;;;;;5055465;28;20037;-61
2022/07/18 02:47:59;;;;;;;15.95;8.00;;;13.80;98.00;;;;;;5058242;28;20032;-62
2022/07/18 02:50:25;;;;;;;13.10;7.35;;;13.80;98.00;;;;;;5059195;28;20658;-62
2022/07/18 02:52:51;;;;;;;11.57;7.10;;;13.80;98.00;;;;;;5058136;28;20090;-61
2022/07/18 02:55:16;;;;;;;14.38;7.75;;;13.80;98.00;;;;;;5060575;28;20037;-61
2022/07/18 02:57:43;;;;;;;11.38;6.80;;;13.80;98.00;;;;;;5062037;28;20387;-61
2022/07/18 03:00:11;;;;;;;12.48;6.93;;;13.70;98.00;;;;;;5057921;28;20518;-61
2022/07/18 03:02:37;;;;;;;12.25;7.03;;;13.70;97.90;;;;;;5060325;28;20468;-61
2022/07/18 03:05:04;;;;;;;12.85;7.05;;;13.70;98.00;;;;;;5053024;28;20573;-62
2022/07/18 03:07:30;;;;;;;11.07;6.80;;;13.70;98.00;;;;;;5052460;28;20083;-61
2022/07/18 03:09:56;;;;;;;13.45;7.53;;;13.70;98.00;;;;;;5049072;28;20040;-61
2022/07/18 03:12:22;;;;;;;11.57;6.95;;;13.70;98.00;;;;;;5052116;28;20033;-61
2022/07/18 03:14:47;;;;;;;12.90;7.35;;;13.70;98.00;;;;;;5058771;28;20391;-61
2022/07/18 03:17:13;;;;;;;11.73;6.22;;;13.70;98.00;;;;;;5063857;28;20048;-61
2022/07/18 03:19:39;;;;;;;12.05;7.07;;;13.70;98.00;;;;;;5049598;28;20041;-62
2022/07/18 03:22:05;;;;;;;12.13;6.63;;;13.70;98.10;;;;;;5058560;28;20487;-61
2022/07/18 03:24:31;;;;;;;13.57;7.38;;;13.60;98.10;;;;;;5055919;28;20079;-61
2022/07/18 03:26:56;;;;;;;13.00;7.30;;;13.70;98.10;;;;;;5061638;28;20455;-61
2022/07/18 03:29:22;;;;;;;14.32;7.68;;;13.70;98.20;;;;;;5061244;28;20069;-59
2022/07/18 03:31:48;;;;;;;11.05;7.18;;;13.70;98.30;;;;;;5065931;28;20068;-61
2022/07/18 03:34:14;;;;;;;15.30;7.82;;;13.70;98.20;;;;;;5063000;28;20054;-61
2022/07/18 03:36:40;;;;;;;14.48;8.02;;;13.80;98.20;;;;;;5055887;28;20041;-61
2022/07/18 03:39:06;;;;;;;14.23;8.32;;;13.80;98.20;;;;;;5056031;28;20040;-61
2022/07/18 03:41:32;;;;;;;13.75;8.00;;;13.80;98.20;;;;;;5052356;28;20543;-61
2022/07/18 03:43:58;;;;;;;14.38;8.57;;;13.80;98.10;;;;;;5059830;28;20045;-61
2022/07/18 03:46:24;;;;;;;17.02;8.52;;;13.90;98.10;;;;;;5069574;28;20041;-61
2022/07/18 03:48:49;;;;;;;16.10;9.10;;;14.00;98.00;;;;;;5050932;28;20029;-62
2022/07/18 03:51:15;;;;;;;14.80;8.20;;;14.00;98.00;;;;;;5061109;28;20037;-61
2022/07/18 03:53:41;;;;;;;15.43;9.40;;;14.00;98.00;;;;;;5050468;28;20047;-62
2022/07/18 03:56:07;;;;;;;20.40;8.65;;;14.10;98.00;;;;;;5058514;28;20048;-61
2022/07/18 03:58:33;;;;;;;18.25;8.88;;;14.00;97.90;;;;;;5067509;28;20037;-62
2022/07/18 04:00:59;;;;;;;14.60;8.75;;;14.10;97.90;;;;;;5058069;28;20448;-61
2022/07/18 04:03:24;;;;;;;14.15;9.32;;;14.10;97.90;;;;;;5063991;28;20041;-61
2022/07/18 04:05:50;;;;;;;19.27;8.90;;;14.00;97.90;;;;;;5052771;28;20037;-61
2022/07/18 04:08:16;;;;;;;17.27;8.23;;;14.00;97.90;;;;;;5053803;28;20511;-61
2022/07/18 04:10:43;;;;;;;14.27;8.30;;;14.00;97.90;;;;;;5054959;28;20033;-61
2022/07/18 04:13:09;;;;;;;15.00;7.95;;;13.90;97.90;;;;;;5056120;28;20041;-60
2022/07/18 04:15:36;;;;;;;14.00;8.15;;;13.90;98.00;;;;;;5057909;28;20427;-61
2022/07/18 04:18:02;;;;;;;17.35;8.30;;;13.90;98.00;;;;;;5062087;28;20423;-61
2022/07/18 04:20:28;;;;;;;14.40;8.15;;;13.90;98.00;;;;;;5061126;28;20040;-61
2022/07/18 04:23:00;;;;;;;11.13;7.20;;;13.90;98.10;;;;;;5054882;28;20040;-61
2022/07/18 04:25:28;;;;;;;14.48;8.75;;;13.90;98.30;;;;;;5058456;28;20484;-61
2022/07/18 04:27:55;;;;;;;11.55;7.55;;;13.90;98.30;;;;;;5052117;28;20039;-61
2022/07/18 04:30:23;;;;;;;16.33;8.30;;;13.90;98.40;;;;;;5053175;28;20029;-61
2022/07/18 04:32:49;;;;;;;13.85;7.90;;;13.90;98.40;;;;;;5053226;28;20615;-61
2022/07/18 04:35:15;;;;;;;15.15;7.25;;;13.90;98.40;;;;;;5043610;28;20048;-61
2022/07/18 04:37:41;;;;;;;13.82;8.25;;;14.00;98.40;;;;;;5052099;28;20037;-62
2022/07/18 04:40:09;;;;;;;16.00;8.40;;;14.10;98.30;;;;;;5059195;28;20102;-60
2022/07/18 04:42:35;;;;;;;13.60;7.57;;;14.20;98.00;;;;;;5054542;28;20040;-61
2022/07/18 04:45:02;;;;;;;12.98;7.97;;;14.30;97.80;;;;;;5055941;28;20045;-61
2022/07/18 04:47:28;;;;;;;13.30;7.70;;;14.50;97.70;;;;;;5053623;28;20297;-61
2022/07/18 04:49:54;;;;;;;15.75;7.50;;;14.50;97.30;;;;;;5050828;28;20036;-61
2022/07/18 04:52:20;;;;;;;15.68;7.30;;;14.60;96.90;;;;;;5065871;28;20110;-62
2022/07/18 04:54:46;;;;;;;11.55;7.30;;;14.70;96.80;;;;;;5045983;28;20530;-61
2022/07/18 04:57:14;;;;;;;14.80;8.07;;;14.70;96.80;;;;;;5052345;28;20048;-61
2022/07/18 04:59:41;;;;;;;16.58;7.95;;;14.80;96.70;;;;;;5054120;28;20044;-61
2022/07/18 05:02:11;;;;;;;13.50;7.50;;;14.90;96.50;;;;;;5049106;28;20029;-61
2022/07/18 05:04:38;;;;;;;17.10;8.17;;;14.90;96.20;;;;;;5050869;28;20759;-61
2022/07/18 05:07:05;;;;;;;11.85;7.22;;;15.00;96.00;;;;;;5053872;28;20108;-62
2022/07/18 05:09:30;;;;;;;12.65;7.55;;;15.10;95.90;;;;;;5058563;28;20043;-62
2022/07/18 05:11:56;;;;;;;14.68;7.30;;;15.10;95.80;;;;;;5060790;28;20105;-61
2022/07/18 05:14:22;;;;;;;12.45;6.60;;;15.20;96.00;;;;;;5057689;28;20037;-61
2022/07/18 05:16:48;;;;;;;12.73;7.43;;;15.30;95.50;;;;;;5059611;28;20471;-61
2022/07/18 05:19:17;;;;;;;12.65;7.20;;;15.40;95.20;;;;;;5055630;28;20557;-61
2022/07/18 05:21:43;;;;;;;12.32;6.65;;;15.40;95.20;;;;;;5064709;28;20044;-61
2022/07/18 05:24:09;;;;;;;14.52;7.55;;;15.60;95.10;;;;;;5044518;28;20441;-61
2022/07/18 05:26:35;;;;;;;13.73;7.45;;;15.60;95.10;;;;;;5054439;28;20103;-61
2022/07/18 05:29:00;;;;;;;11.55;7.18;;;15.70;95.00;;;;;;5052084;28;20037;-62
2022/07/18 05:31:26;;;;;;;10.43;6.30;;;15.80;94.90;;;;;;5054450;28;20037;-62
2022/07/18 05:33:51;;;;;;;13.23;6.25;;;15.90;94.80;;;;;;5057627;28;20048;-62
2022/07/18 05:36:17;;;;;;;12.25;7.00;;;16.00;94.70;;;;;;5056916;28;20037;-61
2022/07/18 05:38:43;;;;;;;10.52;6.60;;;16.00;94.80;;;;;;5046348;28;20053;-62
2022/07/18 05:41:08;;;;;;;8.98;6.25;;;16.10;94.90;;;;;;5047038;28;20048;-61
2022/07/18 05:43:34;;;;;;;10.93;6.20;;;16.10;94.90;;;;;;5048266;28;20037;-61
2022/07/18 05:46:00;;;;;;;12.07;6.00;;;16.20;94.90;;;;;;5062342;28;20039;-62
2022/07/18 05:48:25;;;;;;;9.52;5.45;;;16.30;94.90;;;;;;5064814;28;20029;-62
2022/07/18 05:50:51;;;;;;;10.85;6.00;;;16.40;94.60;;;;;;5057118;28;20037;-61
2022/07/18 05:53:17;;;;;;;11.18;5.07;;;16.50;94.30;;;;;;5066979;28;20040;-62
2022/07/18 05:55:42;;;;;;;9.18;5.07;;;16.70;94.00;;;;;;5059870;28;20053;-61
2022/07/18 05:58:08;;;;;;;8.35;4.97;;;16.80;93.60;;;;;;5060684;28;20048;-61
2022/07/18 06:00:34;;;;;;;12.52;5.68;;;17.00;93.10;;;;;;5059944;28;20072;-61
2022/07/18 06:03:00;;;;;;;9.98;5.78;;;17.10;93.00;;;;;;5058198;28;20037;-61
2022/07/18 06:05:26;;;;;;;9.60;6.10;;;17.20;92.90;;;;;;5055401;28;20045;-61
2022/07/18 06:07:53;;;;;;;12.93;6.32;;;17.30;92.90;;;;;;5051640;28;20041;-60
2022/07/18 06:10:18;;;;;;;10.02;5.63;;;17.40;93.20;;;;;;5057184;28;20040;-61
2022/07/18 06:12:44;;;;;;;8.85;5.18;;;17.50;92.70;;;;;;5059316;28;20111;-61
2022/07/18 06:15:10;;;;;;;9.10;5.50;;;17.50;92.40;;;;;;5058884;28;20479;-61
2022/07/18 06:17:35;;;;;;;8.35;5.03;;;17.60;92.20;;;;;;5064821;28;20047;-62
2022/07/18 06:20:04;;;;;;;8.80;5.05;;;17.80;91.80;;;;;;5047675;28;20480;-60
2022/07/18 06:22:30;;;;;;;10.70;4.57;;;17.90;91.30;;;;;;5060168;28;20045;-62
2022/07/18 06:24:55;;;;;;;9.15;4.82;;;18.10;90.70;;;;;;5053860;28;20726;-62
2022/07/18 06:27:21;;;;;;;6.95;4.50;;;18.20;90.20;;;;;;5046337;28;20029;-62
2022/07/18 06:29:47;;;;;;;7.88;4.20;;;18.30;87.40;;;;;;5050744;28;20059;-62
2022/07/18 06:32:12;;;;;;;9.38;4.05;;;18.50;88.40;;;;;;5052211;28;20094;-61
2022/07/18 06:34:38;;;;;;;12.80;3.97;;;18.70;87.20;;;;;;5053209;28;20044;-62
2022/07/18 06:37:03;;;;;;;9.02;3.70;;;18.90;87.10;;;;;;5053016;28;20037;-62
2022/07/18 06:39:29;;;;;;;5.45;3.60;;;19.10;86.60;;;;;;5053319;28;20126;-62
2022/07/18 06:41:54;;;;;;;6.55;3.42;;;19.40;85.80;;;;;;5053582;28;20395;-62
2022/07/18 06:44:20;;;;;;;7.50;3.72;;;19.60;85.40;;;;;;5056024;28;20043;-62
2022/07/18 06:46:45;;;;;;;5.93;3.05;;;19.70;83.90;;;;;;5055913;28;20039;-62
2022/07/18 06:49:11;;;;;;;5.47;2.67;;;19.90;82.80;;;;;;5065806;28;20494;-62
2022/07/18 06:51:36;;;;;;;6.05;2.80;;;20.20;82.10;;;;;;5062881;28;20036;-62
2022/07/18 06:54:02;;;;;;;4.78;2.83;;;20.50;81.00;;;;;;5070609;28;20422;-62
2022/07/18 06:56:28;;;;;;;5.88;2.70;;;20.90;79.30;;;;;;5060629;28;20068;-63
2022/07/18 06:58:54;;;;;;;5.00;2.55;;;21.00;76.70;;;;;;5061037;28;20045;-62
2022/07/18 07:01:20;;;;;;;4.97;2.33;;;21.10;76.10;;;;;;5061531;28;20135;-63
2022/07/18 07:03:46;;;;;;;4.55;2.30;;;21.20;75.30;;;;;;5060427;28;20048;-62
2022/07/18 07:06:13;;;;;;;5.80;2.40;;;21.20;73.30;;;;;;5059436;28;20040;-63
2022/07/18 07:08:38;;;;;;;4.80;2.20;;;21.60;73.40;;;;;;5062635;28;20036;-63
2022/07/18 07:11:05;;;;;;;6.18;2.67;;;21.80;73.00;;;;;;5056618;28;20101;-63
2022/07/18 07:13:31;;;;;;;2.83;1.63;;;21.80;69.80;;;;;;5050542;28;20071;-63
2022/07/18 07:15:57;;;;;;;4.95;1.90;;;22.00;67.00;;;;;;5055216;28;20069;-63
2022/07/18 07:18:22;;;;;;;2.40;1.92;;;22.10;62.60;;;;;;5055684;28;20045;-62
2022/07/18 07:20:48;;;;;;;2.85;1.48;;;22.20;61.50;;;;;;5067841;28;20047;-63
2022/07/18 07:23:13;;;;;;;4.28;1.73;;;22.60;62.30;;;;;;5071577;28;20176;-63
2022/07/18 07:25:39;;;;;;;4.95;1.52;;;22.50;57.50;;;;;;5070985;28;20024;-63
2022/07/18 07:28:05;;;;;;;4.90;1.75;;;22.60;57.80;;;;;;5054534;28;20048;-63
2022/07/18 07:30:33;;;;;;;2.42;1.50;;;22.80;58.20;;;;;;5060141;28;20051;-63
2022/07/18 07:32:59;;;;;;;2.55;1.30;;;23.00;57.10;;;;;;5059912;28;20072;-63
2022/07/18 07:35:25;;;;;;;3.08;1.58;;;23.10;56.90;;;;;;5067442;28;20070;-63
2022/07/18 07:37:56;;;;;;;2.92;1.58;;;23.60;57.10;;;;;;5062730;28;20036;-62
2022/07/18 07:40:26;;;;;;;4.32;1.70;;;23.70;56.30;;;;;;5065279;28;20072;-63
2022/07/18 07:43:04;;;;;;;2.38;1.45;;;24.10;55.60;;;;;;5060494;28;20040;-63
2022/07/18 07:45:29;;;;;;;3.17;1.70;;;24.30;54.00;;;;;;5057730;28;20041;-63
2022/07/18 07:47:55;;;;;;;5.03;1.55;;;24.60;55.20;;;;;;5050486;28;20037;-63
2022/07/18 07:50:20;;;;;;;2.95;1.83;;;24.70;54.20;;;;;;5052586;28;20114;-63
2022/07/18 07:52:46;;;;;;;2.63;1.65;;;24.80;53.10;;;;;;5056739;28;20036;-63
2022/07/18 07:55:11;;;;;;;3.53;1.77;;;25.10;53.40;;;;;;5056224;28;20492;-63
2022/07/18 07:57:37;;;;;;;4.88;1.70;;;25.20;51.40;;;;;;5054860;28;20146;-63
2022/07/18 08:00:08;;;;;;;2.97;2.03;;;25.10;52.30;;;;;;5063742;28;20178;-63
2022/07/18 08:02:34;;;;;;;4.80;1.38;;;25.00;51.40;;;;;;5055023;28;20033;-63
2022/07/18 08:05:00;;;;;;;3.78;1.67;;;24.90;51.70;;;;;;5056887;28;20055;-64
2022/07/18 08:07:25;;;;;;;3.38;1.65;;;24.80;51.80;;;;;;5053439;28;20709;-63
2022/07/18 08:09:51;;;;;;;3.80;1.95;;;24.60;51.30;;;;;;5051486;28;20032;-62
2022/07/18 08:12:16;;;;;;;3.10;1.60;;;24.50;51.80;;;;;;5057053;28;20076;-63
2022/07/18 08:14:42;;;;;;;4.07;2.13;;;24.70;52.10;;;;;;5049732;28;20511;-63
2022/07/18 08:17:08;;;;;;;5.30;2.10;;;25.00;51.90;;;;;;5055914;28;20051;-63
2022/07/18 08:19:33;;;;;;;4.65;1.92;;;25.30;51.50;;;;;;5052197;28;20175;-63
2022/07/18 08:21:59;;;;;;;3.45;1.80;;;25.50;51.60;;;;;;5053033;28;20079;-63
2022/07/18 08:24:25;;;;;;;7.28;2.10;;;25.80;51.30;;;;;;5052446;28;20388;-63
2022/07/18 08:26:50;;;;;;;2.08;1.33;;;25.90;50.00;;;;;;5061867;28;20043;-63
2022/07/18 08:29:16;;;;;;;3.95;1.70;;;25.90;50.50;;;;;;5067275;28;20044;-63
2022/07/18 08:31:42;;;;;;;3.03;1.52;;;26.10;49.40;;;;;;5058041;28;20028;-63
2022/07/18 08:34:07;;;;;;;5.35;1.42;;;26.30;49.40;;;;;;5054602;28;20094;-62
2022/07/18 08:36:33;;;;;;;4.53;1.38;;;26.40;49.10;;;;;;5066686;28;20044;-63
2022/07/18 08:38:59;;;;;;;4.72;1.52;;;26.40;48.70;;;;;;5053365;28;20044;-63
2022/07/18 08:41:27;;;;;;;4.30;1.40;;;26.60;47.40;;;;;;5058425;28;20115;-62
2022/07/18 08:43:53;;;;;;;4.03;1.80;;;27.20;46.20;;;;;;5058687;28;20045;-63
2022/07/18 08:46:21;;;;;;;3.95;1.50;;;27.90;46.00;;;;;;5056452;28;20037;-62
2022/07/18 08:48:47;;;;;;;4.95;1.73;;;28.40;44.80;;;;;;5062795;28;20131;-62
2022/07/18 08:51:13;;;;;;;3.70;1.60;;;28.20;44.00;;;;;;5053567;28;20040;-62
2022/07/18 08:53:40;;;;;;;2.28;1.40;;;28.50;42.30;;;;;;5054160;28;20484;-63
2022/07/18 08:56:06;;;;;;;5.28;1.55;;;28.90;44.20;;;;;;5055453;28;20056;-62
2022/07/18 08:58:32;;;;;;;5.72;1.55;;;28.70;42.90;;;;;;5051788;28;20136;-63
2022/07/18 09:01:00;;;;;;;6.18;1.25;;;28.80;42.40;;;;;;5057035;28;20059;-64
2022/07/18 09:03:26;;;;;;;4.68;1.50;;;29.00;41.70;;;;;;5063106;28;20384;-63
2022/07/18 09:06:07;;;;;;;2.90;1.20;;;29.40;41.60;;;;;;5061840;28;20036;-63
2022/07/18 09:08:33;;;;;;;3.75;1.65;;;29.50;40.50;;;;;;5061215;28;20546;-64
2022/07/18 09:11:02;;;;;;;4.82;1.48;;;29.70;40.60;;;;;;5048294;28;20078;-64
2022/07/18 09:13:33;;;;;;;3.73;1.50;;;29.70;40.80;;;;;;5058559;28;20032;-64
2022/07/18 09:16:03;;;;;;;4.55;1.40;;;29.60;40.60;;;;;;5070214;28;20060;-64
2022/07/18 09:18:37;;;;;;;4.13;1.55;;;29.40;40.90;;;;;;5039009;28;20044;-62
2022/07/18 09:21:04;;;;;;;2.85;1.17;;;29.10;40.90;;;;;;5053188;28;20036;-63
2022/07/18 09:23:32;;;;;;;2.10;1.27;;;28.50;40.80;;;;;;5055621;28;20033;-63
2022/07/18 09:25:59;;;;;;;2.90;1.52;;;28.30;41.50;;;;;;5068883;28;20044;-64
2022/07/18 09:28:26;;;;;;;2.72;1.30;;;28.20;42.20;;;;;;5053722;28;20050;-63
2022/07/18 09:30:52;;;;;;;3.55;1.48;;;28.50;42.50;;;;;;5054355;28;20033;-63
2022/07/18 09:33:20;;;;;;;4.50;1.60;;;29.10;41.80;;;;;;5052397;28;20094;-63
2022/07/18 09:35:48;;;;;;;3.88;1.65;;;29.40;40.40;;;;;;5044232;28;20525;-64
2022/07/18 09:38:20;;;;;;;3.58;1.70;;;29.50;40.20;;;;;;5045952;28;20036;-63
2022/07/18 09:40:48;;;;;;;2.67;1.30;;;30.10;39.80;;;;;;5047199;28;20072;-63
2022/07/18 09:43:17;;;;;;;6.30;1.40;;;30.00;38.50;;;;;;5049208;28;20041;-63
2022/07/18 09:45:54;;;;;;;4.55;1.40;;;29.60;39.10;;;;;;5051685;28;20091;-62
2022/07/18 09:48:22;;;;;;;3.10;1.20;;;29.70;39.10;;;;;;5049543;28;20682;-63
2022/07/18 09:51:06;;;;;;;2.67;1.42;;;30.10;38.30;;;;;;5066881;28;20880;-64
2022/07/18 09:53:39;;;;;;;2.72;1.30;;;30.70;37.60;;;;;;5067489;28;20033;-64
2022/07/18 09:56:12;;;;;;;4.85;1.50;;;30.90;36.30;;;;;;5067223;28;20052;-64
2022/07/18 09:58:54;;;;;;;3.65;1.38;;;30.80;35.90;;;;;;5071078;28;20123;-64
2022/07/18 10:01:20;;;;;;;3.60;1.70;;;30.60;36.60;;;;;;5070564;28;20047;-63
2022/07/18 10:03:48;;;;;;;5.60;1.50;;;30.60;36.60;;;;;;5065143;28;20155;-64
2022/07/18 10:06:18;;;;;;;3.67;1.42;;;30.40;36.80;;;;;;5060393;28;20053;-64
2022/07/18 10:08:44;;;;;;;;;;;31.00;36.80;;;;;;5056610;28;20066;-64
2022/07/18 10:11:10;;;;;;;2.85;1.60;;;30.90;34.90;;;;;;5060680;28;19916;-62
2022/07/18 10:13:38;;;;;;;4.25;2.28;;;31.50;37.10;;;;;;5054155;28;20052;-64
2022/07/18 10:16:04;;;;;;;4.47;1.35;;;32.50;35.70;;;;;;5058945;28;20041;-64
2022/07/18 10:18:32;;;;;;;3.10;1.40;;;32.30;35.20;;;;;;5060648;28;20051;-64
2022/07/18 10:21:05;;;;;;;5.07;1.70;;;33.00;34.50;;;;;;5066990;28;20044;-64
2022/07/18 10:23:43;;;;;;;3.45;1.90;;;33.10;33.00;;;;;;5063367;28;20049;-64
2022/07/18 10:26:25;;;;;;;5.03;1.90;;;33.80;33.00;;;;;;5062384;28;20041;-64
2022/07/18 10:28:58;;;;;;;5.43;2.25;;;33.70;32.80;;;;;;5067411;28;20080;-64
2022/07/18 10:31:34;;;;;;;5.18;2.03;;;33.50;32.60;;;;;;5064545;28;20064;-64
2022/07/18 10:34:06;;;;;;;3.50;2.10;;;33.00;30.40;;;;;;5068737;28;20090;-64
2022/07/18 10:36:32;;;;;;;3.53;2.00;;;32.90;31.30;;;;;;5068730;28;20045;-65
2022/07/18 10:39:20;;;;;;;6.30;2.05;;;33.20;32.70;;;;;;5065763;28;20040;-64
2022/07/18 10:41:45;;;;;;;3.70;2.10;;;33.20;31.00;;;;;;5066582;28;20075;-63
2022/07/18 10:44:23;;;;;;;3.85;1.98;;;33.30;32.10;;;;;;5068282;28;20037;-63
2022/07/18 10:47:15;;;;;;;4.53;2.00;;;33.80;31.10;;;;;;5070964;28;20044;-62
2022/07/18 10:49:53;;;;;;;3.67;2.10;;;33.90;30.70;;;;;;5069677;28;20052;-63
2022/07/18 10:52:33;;;;;;;4.00;1.70;;;33.50;30.60;;;;;;5060113;28;20194;-66
2022/07/18 10:55:05;;;;;;;6.50;1.70;;;33.10;32.30;;;;;;5053529;28;20090;-62
2022/07/18 10:57:32;;;;;;;4.60;1.90;;;32.90;32.80;;;;;;5054603;28;20495;-63
2022/07/18 11:00:08;;;;;;;5.38;2.05;;;32.80;32.90;;;;;;5065503;28;20040;-64
2022/07/18 11:02:38;;;;;;;5.93;1.90;;;32.40;32.60;;;;;;5071692;28;20048;-63
2022/07/18 11:05:26;;;;;;;4.25;1.90;;;32.30;33.70;;;;;;5063022;28;20140;-64
2022/07/18 11:07:58;;;;;;;3.58;1.83;;;31.60;33.10;;;;;;5060556;28;20087;-62
2022/07/18 11:10:50;;;;;;;5.32;2.92;;;31.50;32.70;;;;;;5056544;28;20041;-62
2022/07/18 11:13:31;;;;;;;6.15;2.28;;;30.40;32.40;;;;;;5067791;28;20382;-62
2022/07/18 11:16:09;;;;;;;4.75;2.40;;;30.10;32.80;;;;;;5063758;28;20072;-61
2022/07/18 11:18:43;;;;;;;5.82;2.35;;;30.30;33.00;;;;;;5053939;28;20043;-65
2022/07/18 11:21:31;;;;;;;5.22;2.40;;;30.50;32.70;;;;;;5071455;28;20044;-64
2022/07/18 11:24:08;;;;;;;4.70;2.10;;;30.20;33.20;;;;;;5069907;28;20388;-64
2022/07/18 11:26:46;;;;;;;4.32;2.15;;;30.00;34.10;;;;;;5056718;28;20040;-65
2022/07/18 11:29:15;;;;;;;5.10;2.40;;;29.80;33.90;;;;;;5051423;28;20139;-66
2022/07/18 11:31:46;;;;;;;4.72;1.95;;;30.00;34.30;;;;;;5066360;28;20732;-64
2022/07/18 11:34:12;;;;;;;4.53;2.20;;;30.20;34.20;;;;;;5057471;28;20040;-64
2022/07/18 11:36:41;;;;;;;4.75;2.70;;;30.40;33.40;;;;;;5057748;28;20075;-62
2022/07/18 11:39:06;;;;;;;4.22;2.40;;;30.60;33.70;;;;;;5050780;28;20052;-62
2022/07/18 11:41:32;;;;;;;4.28;2.50;;;30.60;33.30;;;;;;5050915;28;20037;-63
2022/07/18 11:43:58;;;;;;;3.03;1.90;;;30.60;33.20;;;;;;5053444;28;20048;-63
2022/07/18 11:46:26;;;;;;;4.88;2.00;;;30.70;33.80;;;;;;5060667;28;20035;-63
2022/07/18 11:49:05;;;;;;;5.90;2.65;;;30.70;33.60;;;;;;5038695;28;20036;-62
2022/07/18 11:51:40;;;;;;;5.20;2.47;;;30.70;32.70;;;;;;5039798;28;20074;-63
2022/07/18 11:54:07;;;;;;;3.70;2.30;;;30.70;33.10;;;;;;5058829;28;20052;-60
2022/07/18 11:56:43;;;;;;;7.10;2.97;;;30.90;32.40;;;;;;5056594;28;20091;-61
2022/07/18 11:59:09;;;;;;;3.45;2.45;;;30.90;31.30;;;;;;5066800;28;20036;-63
2022/07/18 12:01:34;;;;;;;6.63;2.70;;;30.80;31.80;;;;;;5069922;28;20028;-63
2022/07/18 12:04:02;;;;;;;4.05;2.60;;;30.80;32.40;;;;;;5061119;28;20044;-63
2022/07/18 12:06:28;;;;;;;5.07;3.10;;;30.90;32.30;;;;;;5055587;28;20109;-62
2022/07/18 12:09:03;;;;;;;5.72;2.55;;;31.00;31.50;;;;;;5052481;28;20653;-62
2022/07/18 12:11:35;;;;;;;4.13;2.72;;;31.20;31.60;;;;;;5060874;28;20128;-63
2022/07/18 12:14:14;;;;;;;7.10;3.15;;;31.40;31.60;;;;;;5068320;28;20122;-64
2022/07/18 12:16:45;;;;;;;5.88;2.83;;;31.70;30.60;;;;;;5039768;28;20145;-63
2022/07/18 12:19:16;;;;;;;6.40;2.63;;;31.80;31.60;;;;;;5053750;28;20040;-63
2022/07/18 12:21:52;;;;;;;4.45;2.40;;;32.10;31.10;;;;;;5057054;28;20071;-63
2022/07/18 12:24:24;;;;;;;5.18;2.55;;;32.10;30.30;;;;;;5058672;28;20064;-61
2022/07/18 12:27:18;;;;;;;3.63;2.50;;;32.10;30.00;;;;;;5066138;28;20036;-61
2022/07/18 12:29:59;;;;;;;4.93;2.95;;;32.30;31.00;;;;;;5053439;28;20079;-63
2022/07/18 12:32:47;;;;;;;4.13;2.58;;;33.00;29.90;;;;;;5057932;28;20048;-62
2022/07/18 12:35:35;;;;;;;4.05;2.55;;;33.00;29.40;;;;;;5061000;28;20072;-63
2022/07/18 12:38:12;;;;;;;4.85;2.40;;;32.90;29.20;;;;;;5066691;28;20039;-63
2022/07/18 12:40:52;;;;;;;5.43;2.60;;;33.20;29.60;;;;;;5050961;28;20114;-64
2022/07/18 12:43:25;;;;;;;3.92;2.67;;;32.90;29.60;;;;;;5051495;28;20131;-62
2022/07/18 12:45:52;;;;;;;4.50;2.30;;;32.50;29.60;;;;;;5056450;28;20049;-63
2022/07/18 12:48:17;;;;;;;6.03;3.08;;;32.40;30.50;;;;;;5064199;28;20043;-64
2022/07/18 12:50:44;;;;;;;4.28;2.65;;;32.10;31.30;;;;;;5066698;28;20403;-63